sensor_id;sensor_type;location;lat;lon;timestamp;pressure;altitude;pressure_sealevel;temperature;humidity
44765;BME280;30484;52.382;5.260;2023-07-31T00:00:28;101024.28;;;19.14;100.00
44765;BME280;30484;52.382;5.260;2023-07-31T00:02:56;101022.38;;;19.26;100.00
44765;BME280;30484;52.382;5.260;2023-07-31T00:05:26;101018.59;;;19.50;100.00
44765;BME280;30484;52.382;5.260;2023-07-31T00:07:55;101028.09;;;19.44;100.00
44765;BME280;30484;52.382;5.260;2023-07-31T00:10:23;101020.63;;;19.58;100.00
44765;BME280;30484;52.382;5.260;2023-07-31T00:12:51;101016.78;;;19.39;100.00
44765;BME280;30484;52.382;5.260;2023-07-31T00:15:20;101008.13;;;19.66;100.00
44765;BME280;30484;52.382;5.260;2023-07-31T00:17:48;101010.00;;;19.66;100.00
44765;BME280;30484;52.382;5.260;2023-07-31T00:20:16;101005.31;;;19.47;100.00
44765;BME280;30484;52.382;5.260;2023-07-31T00:22:46;101013.56;;;19.66;100.00
44765;BME280;30484;52.382;5.260;2023-07-31T00:25:15;101007.16;;;19.67;100.00
44765;BME280;30484;52.382;5.260;2023-07-31T00:27:43;101007.91;;;19.70;100.00
44765;BME280;30484;52.382;5.260;2023-07-31T00:30:13;101007.28;;;19.66;100.00
44765;BME280;30484;52.382;5.260;2023-07-31T00:32:41;101007.75;;;19.71;100.00
44765;BME280;30484;52.382;5.260;2023-07-31T00:35:10;101004.28;;;19.48;100.00
44765;BME280;30484;52.382;5.260;2023-07-31T00:37:38;101003.25;;;19.60;100.00
44765;BME280;30484;52.382;5.260;2023-07-31T00:40:09;101003.47;;;19.90;100.00
44765;BME280;30484;52.382;5.260;2023-07-31T00:42:37;101009.81;;;20.00;100.00
44765;BME280;30484;52.382;5.260;2023-07-31T00:45:06;100996.09;;;20.02;100.00
44765;BME280;30484;52.382;5.260;2023-07-31T00:47:35;101008.28;;;19.86;100.00
44765;BME280;30484;52.382;5.260;2023-07-31T00:50:05;101002.59;;;19.89;100.00
44765;BME280;30484;52.382;5.260;2023-07-31T00:52:36;101005.78;;;19.94;100.00
44765;BME280;30484;52.382;5.260;2023-07-31T00:55:05;101000.22;;;20.27;100.00
44765;BME280;30484;52.382;5.260;2023-07-31T00:57:37;100989.00;;;20.10;100.00
44765;BME280;30484;52.382;5.260;2023-07-31T01:00:08;100993.34;;;19.92;100.00
44765;BME280;30484;52.382;5.260;2023-07-31T01:02:37;100995.34;;;19.90;100.00
44765;BME280;30484;52.382;5.260;2023-07-31T01:05:06;100993.44;;;20.42;100.00
44765;BME280;30484;52.382;5.260;2023-07-31T01:07:45;100971.66;;;20.23;100.00
44765;BME280;30484;52.382;5.260;2023-07-31T01:10:23;100993.88;;;20.16;100.00
44765;BME280;30484;52.382;5.260;2023-07-31T01:12:57;100997.78;;;20.24;100.00
44765;BME280;30484;52.382;5.260;2023-07-31T01:15:26;100988.19;;;19.89;100.00
44765;BME280;30484;52.382;5.260;2023-07-31T01:17:54;100987.13;;;20.42;100.00
44765;BME280;30484;52.382;5.260;2023-07-31T01:20:25;100976.09;;;20.33;100.00
44765;BME280;30484;52.382;5.260;2023-07-31T01:26:20;100981.09;;;20.28;100.00
44765;BME280;30484;52.382;5.260;2023-07-31T01:28:56;100974.53;;;20.31;100.00
44765;BME280;30484;52.382;5.260;2023-07-31T01:31:30;100981.94;;;20.29;100.00
44765;BME280;30484;52.382;5.260;2023-07-31T01:34:01;100973.00;;;20.07;100.00
44765;BME280;30484;52.382;5.260;2023-07-31T01:36:30;100983.59;;;20.10;100.00
44765;BME280;30484;52.382;5.260;2023-07-31T01:38:59;100982.13;;;20.06;100.00
44765;BME280;30484;52.382;5.260;2023-07-31T01:41:29;100976.25;;;20.32;100.00
44765;BME280;30484;52.382;5.260;2023-07-31T01:43:58;100964.50;;;20.22;100.00
44765;BME280;30484;52.382;5.260;2023-07-31T01:46:26;100991.47;;;19.92;100.00
44765;BME280;30484;52.382;5.260;2023-07-31T01:48:55;100982.75;;;20.10;100.00
44765;BME280;30484;52.382;5.260;2023-07-31T01:51:24;100974.47;;;20.11;100.00
44765;BME280;30484;52.382;5.260;2023-07-31T01:53:52;100969.84;;;20.02;100.00
44765;BME280;30484;52.382;5.260;2023-07-31T01:56:20;100961.88;;;20.10;100.00
44765;BME280;30484;52.382;5.260;2023-07-31T01:58:51;100949.66;;;19.64;100.00
44765;BME280;30484;52.382;5.260;2023-07-31T02:01:19;100950.38;;;19.87;100.00
44765;BME280;30484;52.382;5.260;2023-07-31T02:03:48;100956.88;;;20.06;100.00
44765;BME280;30484;52.382;5.260;2023-07-31T02:06:16;100949.06;;;19.81;100.00
44765;BME280;30484;52.382;5.260;2023-07-31T02:08:44;100955.00;;;19.75;100.00
44765;BME280;30484;52.382;5.260;2023-07-31T02:11:13;100953.00;;;19.56;100.00
44765;BME280;30484;52.382;5.260;2023-07-31T02:13:41;100945.00;;;19.97;100.00
44765;BME280;30484;52.382;5.260;2023-07-31T02:16:11;100930.75;;;20.05;100.00
44765;BME280;30484;52.382;5.260;2023-07-31T02:18:40;100934.44;;;20.04;100.00
44765;BME280;30484;52.382;5.260;2023-07-31T02:21:08;100925.31;;;20.05;100.00
44765;BME280;30484;52.382;5.260;2023-07-31T02:23:36;100929.63;;;20.07;100.00
44765;BME280;30484;52.382;5.260;2023-07-31T02:26:05;100923.50;;;20.15;100.00
44765;BME280;30484;52.382;5.260;2023-07-31T02:28:33;100920.78;;;20.05;100.00
44765;BME280;30484;52.382;5.260;2023-07-31T02:31:02;100932.78;;;19.81;100.00
44765;BME280;30484;52.382;5.260;2023-07-31T02:33:32;100919.59;;;19.98;100.00
44765;BME280;30484;52.382;5.260;2023-07-31T02:36:01;100921.03;;;20.02;100.00
44765;BME280;30484;52.382;5.260;2023-07-31T02:38:29;100924.28;;;19.96;100.00
44765;BME280;30484;52.382;5.260;2023-07-31T02:40:58;100930.41;;;20.29;100.00
44765;BME280;30484;52.382;5.260;2023-07-31T02:43:26;100923.53;;;20.25;100.00
44765;BME280;30484;52.382;5.260;2023-07-31T02:45:54;100924.66;;;19.81;100.00
44765;BME280;30484;52.382;5.260;2023-07-31T02:48:23;100915.69;;;19.81;100.00
44765;BME280;30484;52.382;5.260;2023-07-31T02:50:53;100920.66;;;20.16;100.00
44765;BME280;30484;52.382;5.260;2023-07-31T02:53:22;100928.81;;;19.86;100.00
44765;BME280;30484;52.382;5.260;2023-07-31T02:55:50;100914.16;;;19.98;100.00
44765;BME280;30484;52.382;5.260;2023-07-31T02:58:18;100918.94;;;20.15;100.00
44765;BME280;30484;52.382;5.260;2023-07-31T03:00:47;100913.91;;;20.01;100.00
44765;BME280;30484;52.382;5.260;2023-07-31T03:03:15;100904.38;;;20.16;100.00
44765;BME280;30484;52.382;5.260;2023-07-31T03:05:43;100908.72;;;19.88;100.00
44765;BME280;30484;52.382;5.260;2023-07-31T03:08:13;100892.19;;;19.91;100.00
44765;BME280;30484;52.382;5.260;2023-07-31T03:10:41;100910.38;;;19.79;100.00
44765;BME280;30484;52.382;5.260;2023-07-31T03:13:10;100910.34;;;20.10;100.00
44765;BME280;30484;52.382;5.260;2023-07-31T03:15:39;100911.59;;;19.96;100.00
44765;BME280;30484;52.382;5.260;2023-07-31T03:18:10;100907.72;;;20.30;100.00
44765;BME280;30484;52.382;5.260;2023-07-31T03:20:42;100909.00;;;19.95;100.00
44765;BME280;30484;52.382;5.260;2023-07-31T03:23:12;100916.53;;;20.12;100.00
44765;BME280;30484;52.382;5.260;2023-07-31T03:25:56;100911.34;;;19.78;100.00
44765;BME280;30484;52.382;5.260;2023-07-31T03:28:24;100904.75;;;20.02;100.00
44765;BME280;30484;52.382;5.260;2023-07-31T03:30:53;100910.28;;;19.91;100.00
44765;BME280;30484;52.382;5.260;2023-07-31T03:33:22;100904.25;;;20.18;100.00
44765;BME280;30484;52.382;5.260;2023-07-31T03:35:51;100896.13;;;20.18;100.00
44765;BME280;30484;52.382;5.260;2023-07-31T03:38:21;100898.94;;;20.07;100.00
44765;BME280;30484;52.382;5.260;2023-07-31T03:40:49;100901.63;;;19.97;100.00
44765;BME280;30484;52.382;5.260;2023-07-31T03:43:18;100893.13;;;19.80;100.00
44765;BME280;30484;52.382;5.260;2023-07-31T03:45:46;100887.09;;;20.17;100.00
44765;BME280;30484;52.382;5.260;2023-07-31T03:48:15;100893.97;;;20.22;100.00
44765;BME280;30484;52.382;5.260;2023-07-31T03:50:43;100885.38;;;20.07;100.00
44765;BME280;30484;52.382;5.260;2023-07-31T03:53:12;100885.59;;;20.44;100.00
44765;BME280;30484;52.382;5.260;2023-07-31T03:55:42;100881.84;;;19.85;100.00
44765;BME280;30484;52.382;5.260;2023-07-31T03:58:10;100886.59;;;19.62;100.00
44765;BME280;30484;52.382;5.260;2023-07-31T04:00:40;100881.09;;;20.04;100.00
44765;BME280;30484;52.382;5.260;2023-07-31T04:03:09;100875.09;;;20.10;100.00
44765;BME280;30484;52.382;5.260;2023-07-31T04:05:39;100881.28;;;20.32;100.00
44765;BME280;30484;52.382;5.260;2023-07-31T04:08:15;100880.66;;;19.78;100.00
44765;BME280;30484;52.382;5.260;2023-07-31T04:10:45;100875.94;;;20.11;100.00
44765;BME280;30484;52.382;5.260;2023-07-31T04:13:14;100861.94;;;19.96;100.00
44765;BME280;30484;52.382;5.260;2023-07-31T04:15:47;100858.22;;;19.97;100.00
44765;BME280;30484;52.382;5.260;2023-07-31T04:18:18;100852.72;;;20.28;100.00
44765;BME280;30484;52.382;5.260;2023-07-31T04:20:46;100842.59;;;20.30;100.00
44765;BME280;30484;52.382;5.260;2023-07-31T04:23:15;100846.41;;;20.17;100.00
44765;BME280;30484;52.382;5.260;2023-07-31T04:25:45;100857.50;;;19.95;100.00
44765;BME280;30484;52.382;5.260;2023-07-31T04:28:13;100851.41;;;20.22;100.00
44765;BME280;30484;52.382;5.260;2023-07-31T04:30:41;100848.53;;;20.04;100.00
44765;BME280;30484;52.382;5.260;2023-07-31T04:33:10;100866.94;;;20.00;100.00
44765;BME280;30484;52.382;5.260;2023-07-31T04:35:39;100867.66;;;20.03;100.00
44765;BME280;30484;52.382;5.260;2023-07-31T04:38:10;100857.88;;;19.80;100.00
44765;BME280;30484;52.382;5.260;2023-07-31T04:40:38;100859.00;;;20.18;100.00
44765;BME280;30484;52.382;5.260;2023-07-31T04:43:08;100859.09;;;20.07;100.00
44765;BME280;30484;52.382;5.260;2023-07-31T04:45:37;100848.44;;;20.15;100.00
44765;BME280;30484;52.382;5.260;2023-07-31T04:48:05;100845.75;;;19.85;100.00
44765;BME280;30484;52.382;5.260;2023-07-31T04:50:34;100848.44;;;20.15;100.00
44765;BME280;30484;52.382;5.260;2023-07-31T04:53:02;100841.59;;;20.21;100.00
44765;BME280;30484;52.382;5.260;2023-07-31T04:55:31;100836.88;;;20.33;100.00
44765;BME280;30484;52.382;5.260;2023-07-31T04:58:00;100837.09;;;20.00;100.00
44765;BME280;30484;52.382;5.260;2023-07-31T05:00:30;100840.06;;;19.88;100.00
44765;BME280;30484;52.382;5.260;2023-07-31T05:02:58;100838.72;;;20.13;100.00
44765;BME280;30484;52.382;5.260;2023-07-31T05:05:27;100841.09;;;19.96;100.00
44765;BME280;30484;52.382;5.260;2023-07-31T05:07:56;100830.03;;;20.29;100.00
44765;BME280;30484;52.382;5.260;2023-07-31T05:10:24;100824.94;;;19.95;100.00
44765;BME280;30484;52.382;5.260;2023-07-31T05:12:53;100822.19;;;19.75;100.00
44765;BME280;30484;52.382;5.260;2023-07-31T05:15:21;100825.69;;;19.97;100.00
44765;BME280;30484;52.382;5.260;2023-07-31T05:17:51;100831.75;;;20.30;100.00
44765;BME280;30484;52.382;5.260;2023-07-31T05:20:20;100833.06;;;19.85;100.00
44765;BME280;30484;52.382;5.260;2023-07-31T05:22:50;100833.22;;;19.93;100.00
44765;BME280;30484;52.382;5.260;2023-07-31T05:25:19;100838.22;;;19.88;100.00
44765;BME280;30484;52.382;5.260;2023-07-31T05:27:47;100824.84;;;20.06;100.00
44765;BME280;30484;52.382;5.260;2023-07-31T05:30:16;100820.38;;;19.86;100.00
44765;BME280;30484;52.382;5.260;2023-07-31T05:32:48;100814.25;;;19.53;100.00
44765;BME280;30484;52.382;5.260;2023-07-31T05:35:18;100807.44;;;19.68;100.00
44765;BME280;30484;52.382;5.260;2023-07-31T05:37:46;100816.94;;;19.83;100.00
44765;BME280;30484;52.382;5.260;2023-07-31T05:40:15;100802.44;;;19.63;100.00
44765;BME280;30484;52.382;5.260;2023-07-31T05:42:43;100805.84;;;19.87;100.00
44765;BME280;30484;52.382;5.260;2023-07-31T05:45:12;100806.97;;;19.84;100.00
44765;BME280;30484;52.382;5.260;2023-07-31T05:47:41;100796.44;;;19.60;100.00
44765;BME280;30484;52.382;5.260;2023-07-31T05:50:09;100795.16;;;20.05;100.00
44765;BME280;30484;52.382;5.260;2023-07-31T05:52:39;100799.56;;;19.65;100.00
44765;BME280;30484;52.382;5.260;2023-07-31T05:55:08;100795.88;;;19.97;100.00
44765;BME280;30484;52.382;5.260;2023-07-31T05:57:37;100787.44;;;20.00;100.00
44765;BME280;30484;52.382;5.260;2023-07-31T06:00:07;100788.97;;;19.52;100.00
44765;BME280;30484;52.382;5.260;2023-07-31T06:02:36;100783.22;;;19.76;100.00
44765;BME280;30484;52.382;5.260;2023-07-31T06:05:05;100791.56;;;19.23;100.00
44765;BME280;30484;52.382;5.260;2023-07-31T06:07:34;100788.00;;;19.53;100.00
44765;BME280;30484;52.382;5.260;2023-07-31T06:10:05;100784.75;;;19.69;100.00
44765;BME280;30484;52.382;5.260;2023-07-31T06:12:35;100776.56;;;19.40;100.00
44765;BME280;30484;52.382;5.260;2023-07-31T06:15:05;100781.22;;;19.38;100.00
44765;BME280;30484;52.382;5.260;2023-07-31T06:17:34;100784.97;;;19.46;100.00
44765;BME280;30484;52.382;5.260;2023-07-31T06:20:02;100778.31;;;19.20;100.00
44765;BME280;30484;52.382;5.260;2023-07-31T06:22:32;100780.06;;;19.71;100.00
44765;BME280;30484;52.382;5.260;2023-07-31T06:25:00;100768.75;;;19.16;100.00
44765;BME280;30484;52.382;5.260;2023-07-31T06:27:30;100772.78;;;19.72;100.00
44765;BME280;30484;52.382;5.260;2023-07-31T06:29:59;100761.88;;;19.11;100.00
44765;BME280;30484;52.382;5.260;2023-07-31T06:32:27;100757.91;;;19.56;100.00
44765;BME280;30484;52.382;5.260;2023-07-31T06:34:56;100764.66;;;19.31;100.00
44765;BME280;30484;52.382;5.260;2023-07-31T06:37:24;100757.13;;;19.75;100.00
44765;BME280;30484;52.382;5.260;2023-07-31T06:39:52;100756.00;;;19.37;100.00
44765;BME280;30484;52.382;5.260;2023-07-31T06:42:21;100754.38;;;19.65;100.00
44765;BME280;30484;52.382;5.260;2023-07-31T06:44:51;100759.69;;;19.36;100.00
44765;BME280;30484;52.382;5.260;2023-07-31T06:47:19;100753.31;;;19.97;100.00
44765;BME280;30484;52.382;5.260;2023-07-31T06:49:48;100748.16;;;19.85;100.00
44765;BME280;30484;52.382;5.260;2023-07-31T06:52:16;100741.44;;;19.79;100.00
44765;BME280;30484;52.382;5.260;2023-07-31T06:55:00;100737.06;;;19.97;100.00
44765;BME280;30484;52.382;5.260;2023-07-31T06:57:28;100738.47;;;19.82;100.00
44765;BME280;30484;52.382;5.260;2023-07-31T06:59:58;100732.63;;;19.87;100.00
44765;BME280;30484;52.382;5.260;2023-07-31T07:02:27;100737.06;;;19.97;100.00
44765;BME280;30484;52.382;5.260;2023-07-31T07:04:55;100735.53;;;19.54;100.00
44765;BME280;30484;52.382;5.260;2023-07-31T07:07:23;100743.59;;;19.85;100.00
44765;BME280;30484;52.382;5.260;2023-07-31T07:09:52;100736.59;;;19.92;100.00
44765;BME280;30484;52.382;5.260;2023-07-31T07:12:20;100741.34;;;19.90;100.00
44765;BME280;30484;52.382;5.260;2023-07-31T07:14:49;100741.78;;;20.05;100.00
44765;BME280;30484;52.382;5.260;2023-07-31T07:17:18;100737.63;;;20.21;100.00
44765;BME280;30484;52.382;5.260;2023-07-31T07:19:48;100723.81;;;20.24;100.00
44765;BME280;30484;52.382;5.260;2023-07-31T07:22:17;100726.78;;;20.11;100.00
44765;BME280;30484;52.382;5.260;2023-07-31T07:24:46;100726.09;;;20.18;100.00
44765;BME280;30484;52.382;5.260;2023-07-31T07:27:14;100726.34;;;20.45;100.00
44765;BME280;30484;52.382;5.260;2023-07-31T07:29:43;100731.50;;;19.99;100.00
44765;BME280;30484;52.382;5.260;2023-07-31T07:32:11;100727.16;;;20.65;100.00
44765;BME280;30484;52.382;5.260;2023-07-31T07:34:41;100719.22;;;20.14;100.00
44765;BME280;30484;52.382;5.260;2023-07-31T07:37:09;100724.38;;;20.17;100.00
44765;BME280;30484;52.382;5.260;2023-07-31T07:39:38;100729.78;;;20.57;100.00
44765;BME280;30484;52.382;5.260;2023-07-31T07:42:06;100726.03;;;20.77;100.00
44765;BME280;30484;52.382;5.260;2023-07-31T07:44:35;100724.06;;;20.79;100.00
44765;BME280;30484;52.382;5.260;2023-07-31T07:47:04;100721.78;;;20.45;100.00
44765;BME280;30484;52.382;5.260;2023-07-31T07:49:33;100721.19;;;20.51;100.00
44765;BME280;30484;52.382;5.260;2023-07-31T07:52:04;100716.47;;;20.53;100.00
44765;BME280;30484;52.382;5.260;2023-07-31T07:54:33;100714.03;;;20.60;100.00
44765;BME280;30484;52.382;5.260;2023-07-31T07:57:01;100714.06;;;20.70;100.00
44765;BME280;30484;52.382;5.260;2023-07-31T07:59:30;100704.75;;;20.63;100.00
44765;BME280;30484;52.382;5.260;2023-07-31T08:01:58;100705.38;;;20.17;100.00
44765;BME280;30484;52.382;5.260;2023-07-31T08:04:26;100719.31;;;20.81;100.00
44765;BME280;30484;52.382;5.260;2023-07-31T08:06:56;100717.78;;;21.16;100.00
44765;BME280;30484;52.382;5.260;2023-07-31T08:09:25;100707.47;;;20.73;100.00
44765;BME280;30484;52.382;5.260;2023-07-31T08:11:54;100700.44;;;20.90;100.00
44765;BME280;30484;52.382;5.260;2023-07-31T08:14:24;100703.63;;;20.75;100.00
44765;BME280;30484;52.382;5.260;2023-07-31T08:16:53;100692.91;;;20.64;100.00
44765;BME280;30484;52.382;5.260;2023-07-31T08:19:22;100706.50;;;21.11;100.00
44765;BME280;30484;52.382;5.260;2023-07-31T08:21:51;100685.53;;;21.31;100.00
44765;BME280;30484;52.382;5.260;2023-07-31T08:24:25;100699.16;;;21.21;100.00
44765;BME280;30484;52.382;5.260;2023-07-31T08:26:54;100693.22;;;21.36;100.00
44765;BME280;30484;52.382;5.260;2023-07-31T08:29:23;100688.59;;;21.46;100.00
44765;BME280;30484;52.382;5.260;2023-07-31T08:31:51;100682.75;;;21.41;100.00
44765;BME280;30484;52.382;5.260;2023-07-31T08:34:20;100684.38;;;21.34;100.00
44765;BME280;30484;52.382;5.260;2023-07-31T08:36:48;100683.03;;;21.10;100.00
44765;BME280;30484;52.382;5.260;2023-07-31T08:39:17;100684.09;;;21.27;100.00
44765;BME280;30484;52.382;5.260;2023-07-31T08:41:47;100686.44;;;21.22;100.00
44765;BME280;30484;52.382;5.260;2023-07-31T08:44:17;100680.94;;;21.32;100.00
44765;BME280;30484;52.382;5.260;2023-07-31T08:46:46;100685.63;;;21.40;100.00
44765;BME280;30484;52.382;5.260;2023-07-31T08:49:17;100687.56;;;21.47;100.00
44765;BME280;30484;52.382;5.260;2023-07-31T08:51:47;100700.16;;;21.48;100.00
44765;BME280;30484;52.382;5.260;2023-07-31T08:54:17;100697.03;;;21.43;100.00
44765;BME280;30484;52.382;5.260;2023-07-31T08:56:47;100696.72;;;21.74;100.00
44765;BME280;30484;52.382;5.260;2023-07-31T08:59:18;100692.13;;;21.57;100.00
44765;BME280;30484;52.382;5.260;2023-07-31T09:01:52;100691.69;;;21.79;100.00
44765;BME280;30484;52.382;5.260;2023-07-31T09:04:22;100696.81;;;21.82;100.00
44765;BME280;30484;52.382;5.260;2023-07-31T09:06:55;100693.88;;;21.94;100.00
44765;BME280;30484;52.382;5.260;2023-07-31T09:09:25;100692.47;;;21.89;100.00
44765;BME280;30484;52.382;5.260;2023-07-31T09:11:55;100686.50;;;22.04;100.00
44765;BME280;30484;52.382;5.260;2023-07-31T09:14:26;100689.84;;;21.98;100.00
44765;BME280;30484;52.382;5.260;2023-07-31T09:16:56;100692.09;;;22.20;100.00
44765;BME280;30484;52.382;5.260;2023-07-31T09:19:26;100683.09;;;22.02;100.00
44765;BME280;30484;52.382;5.260;2023-07-31T09:21:55;100684.09;;;22.01;100.00
44765;BME280;30484;52.382;5.260;2023-07-31T09:24:28;100683.13;;;22.10;100.00
44765;BME280;30484;52.382;5.260;2023-07-31T09:27:00;100678.56;;;21.93;100.00
44765;BME280;30484;52.382;5.260;2023-07-31T09:29:29;100679.50;;;21.83;100.00
44765;BME280;30484;52.382;5.260;2023-07-31T09:31:58;100678.09;;;21.79;100.00
44765;BME280;30484;52.382;5.260;2023-07-31T09:34:36;100669.78;;;21.99;100.00
44765;BME280;30484;52.382;5.260;2023-07-31T09:37:05;100677.69;;;22.28;100.00
44765;BME280;30484;52.382;5.260;2023-07-31T09:39:46;100671.25;;;22.11;100.00
44765;BME280;30484;52.382;5.260;2023-07-31T09:42:26;100675.91;;;22.37;100.00
44765;BME280;30484;52.382;5.260;2023-07-31T09:45:07;100675.50;;;22.50;100.00
44765;BME280;30484;52.382;5.260;2023-07-31T09:47:36;100679.78;;;22.34;100.00
44765;BME280;30484;52.382;5.260;2023-07-31T09:50:08;100679.47;;;22.19;100.00
44765;BME280;30484;52.382;5.260;2023-07-31T09:52:39;100681.72;;;22.24;100.00
44765;BME280;30484;52.382;5.260;2023-07-31T09:55:08;100675.94;;;22.01;100.00
44765;BME280;30484;52.382;5.260;2023-07-31T09:57:43;100674.38;;;22.16;100.00
44765;BME280;30484;52.382;5.260;2023-07-31T10:00:15;100673.25;;;22.71;100.00
44765;BME280;30484;52.382;5.260;2023-07-31T10:02:46;100682.28;;;22.28;100.00
44765;BME280;30484;52.382;5.260;2023-07-31T10:05:15;100679.69;;;22.44;100.00
44765;BME280;30484;52.382;5.260;2023-07-31T10:07:51;100670.75;;;22.52;100.00
44765;BME280;30484;52.382;5.260;2023-07-31T10:10:20;100672.00;;;22.21;100.00
44765;BME280;30484;52.382;5.260;2023-07-31T10:12:52;100673.03;;;22.38;100.00
44765;BME280;30484;52.382;5.260;2023-07-31T10:15:21;100666.63;;;22.30;100.00
44765;BME280;30484;52.382;5.260;2023-07-31T10:17:50;100674.97;;;22.72;100.00
44765;BME280;30484;52.382;5.260;2023-07-31T10:20:20;100670.38;;;22.29;100.00
44765;BME280;30484;52.382;5.260;2023-07-31T10:22:49;100669.94;;;22.60;100.00
44765;BME280;30484;52.382;5.260;2023-07-31T10:25:20;100664.72;;;22.66;100.00
44765;BME280;30484;52.382;5.260;2023-07-31T10:27:51;100669.13;;;22.67;100.00
44765;BME280;30484;52.382;5.260;2023-07-31T10:30:24;100665.78;;;22.73;100.00
44765;BME280;30484;52.382;5.260;2023-07-31T10:32:54;100668.50;;;23.08;100.00
44765;BME280;30484;52.382;5.260;2023-07-31T10:35:23;100651.66;;;22.78;100.00
44765;BME280;30484;52.382;5.260;2023-07-31T10:37:52;100665.41;;;23.29;100.00
44765;BME280;30484;52.382;5.260;2023-07-31T10:40:26;100654.44;;;22.86;100.00
44765;BME280;30484;52.382;5.260;2023-07-31T10:42:56;100649.34;;;22.91;100.00
44765;BME280;30484;52.382;5.260;2023-07-31T10:45:31;100643.28;;;22.71;100.00
44765;BME280;30484;52.382;5.260;2023-07-31T10:48:02;100652.75;;;23.20;100.00
44765;BME280;30484;52.382;5.260;2023-07-31T10:50:32;100671.56;;;23.05;100.00
44765;BME280;30484;52.382;5.260;2023-07-31T10:53:01;100666.75;;;22.99;100.00
44765;BME280;30484;52.382;5.260;2023-07-31T10:55:32;100660.75;;;23.13;100.00
44765;BME280;30484;52.382;5.260;2023-07-31T10:58:10;100658.66;;;22.81;100.00
44765;BME280;30484;52.382;5.260;2023-07-31T11:00:40;100657.97;;;22.79;100.00
44765;BME280;30484;52.382;5.260;2023-07-31T11:03:12;100659.69;;;22.53;100.00
44765;BME280;30484;52.382;5.260;2023-07-31T11:05:50;100663.94;;;22.56;100.00
44765;BME280;30484;52.382;5.260;2023-07-31T11:08:22;100668.84;;;22.79;100.00
44765;BME280;30484;52.382;5.260;2023-07-31T11:11:06;100670.91;;;22.77;100.00
44765;BME280;30484;52.382;5.260;2023-07-31T11:13:43;100668.50;;;22.47;100.00
44765;BME280;30484;52.382;5.260;2023-07-31T11:16:13;100676.75;;;23.16;100.00
44765;BME280;30484;52.382;5.260;2023-07-31T11:18:43;100663.38;;;23.05;100.00
44765;BME280;30484;52.382;5.260;2023-07-31T11:21:13;100676.22;;;23.13;100.00
44765;BME280;30484;52.382;5.260;2023-07-31T11:23:46;100663.19;;;22.98;100.00
44765;BME280;30484;52.382;5.260;2023-07-31T11:26:15;100657.56;;;23.34;100.00
44765;BME280;30484;52.382;5.260;2023-07-31T11:28:48;100662.78;;;23.70;100.00
44765;BME280;30484;52.382;5.260;2023-07-31T11:31:17;100663.00;;;23.93;100.00
44765;BME280;30484;52.382;5.260;2023-07-31T11:33:47;100655.50;;;23.87;100.00
44765;BME280;30484;52.382;5.260;2023-07-31T11:36:16;100636.84;;;23.83;100.00
44765;BME280;30484;52.382;5.260;2023-07-31T11:38:45;100643.22;;;24.08;100.00
44765;BME280;30484;52.382;5.260;2023-07-31T11:41:15;100631.81;;;23.96;100.00
44765;BME280;30484;52.382;5.260;2023-07-31T11:43:48;100633.69;;;24.12;100.00
44765;BME280;30484;52.382;5.260;2023-07-31T11:46:17;100640.16;;;23.94;100.00
44765;BME280;30484;52.382;5.260;2023-07-31T11:48:46;100630.59;;;24.32;100.00
44765;BME280;30484;52.382;5.260;2023-07-31T11:51:20;100634.69;;;24.03;100.00
44765;BME280;30484;52.382;5.260;2023-07-31T11:53:53;100623.72;;;23.70;100.00
44765;BME280;30484;52.382;5.260;2023-07-31T11:56:23;100625.78;;;23.76;100.00
44765;BME280;30484;52.382;5.260;2023-07-31T11:58:57;100624.59;;;23.11;100.00
44765;BME280;30484;52.382;5.260;2023-07-31T12:01:27;100635.03;;;24.00;100.00
44765;BME280;30484;52.382;5.260;2023-07-31T12:03:56;100634.97;;;23.67;100.00
44765;BME280;30484;52.382;5.260;2023-07-31T12:06:33;100635.66;;;23.77;100.00
44765;BME280;30484;52.382;5.260;2023-07-31T12:09:04;100629.41;;;24.01;100.00
44765;BME280;30484;52.382;5.260;2023-07-31T12:11:43;100646.66;;;24.10;100.00
44765;BME280;30484;52.382;5.260;2023-07-31T12:14:22;100645.28;;;24.06;100.00
44765;BME280;30484;52.382;5.260;2023-07-31T12:16:54;100643.53;;;23.88;100.00
44765;BME280;30484;52.382;5.260;2023-07-31T12:19:25;100640.84;;;24.05;100.00
44765;BME280;30484;52.382;5.260;2023-07-31T12:21:55;100641.84;;;24.04;100.00
44765;BME280;30484;52.382;5.260;2023-07-31T12:24:23;100634.31;;;23.81;100.00
44765;BME280;30484;52.382;5.260;2023-07-31T12:26:52;100632.63;;;24.46;100.00
44765;BME280;30484;52.382;5.260;2023-07-31T12:29:23;100622.53;;;24.55;100.00
44765;BME280;30484;52.382;5.260;2023-07-31T12:31:51;100616.06;;;24.47;100.00
44765;BME280;30484;52.382;5.260;2023-07-31T12:34:20;100606.69;;;24.42;100.00
44765;BME280;30484;52.382;5.260;2023-07-31T12:36:49;100596.81;;;24.97;100.00
44765;BME280;30484;52.382;5.260;2023-07-31T12:39:17;100595.06;;;24.40;100.00
44765;BME280;30484;52.382;5.260;2023-07-31T12:41:46;100604.03;;;25.21;100.00
44765;BME280;30484;52.382;5.260;2023-07-31T12:44:14;100595.28;;;24.94;100.00
44765;BME280;30484;52.382;5.260;2023-07-31T12:46:44;100601.03;;;24.43;100.00
44765;BME280;30484;52.382;5.260;2023-07-31T12:49:12;100587.22;;;24.61;100.00
44765;BME280;30484;52.382;5.260;2023-07-31T12:51:41;100600.91;;;24.20;100.00
44765;BME280;30484;52.382;5.260;2023-07-31T12:54:09;100598.16;;;24.37;100.00
44765;BME280;30484;52.382;5.260;2023-07-31T12:56:37;100598.13;;;24.53;100.00